Time;durP1;ratioP1;P1;durP2;ratioP2;P2;SDS_P1;SDS_P2;PMS_P1;PMS_P2;Temp;Humidity;BMP_temperature;BMP_pressure;BME280_temperature;BME280_humidity;BME280_pressure;Samples;Min_cycle;Max_cycle;Signal;HPM_P1;HPM_P2
2021/06/09 00:01:02;;;;;;;5.35;4.85;;;;;;;20.96;49.56;101158.97;4919077;28;129037;-70
2021/06/09 00:03:28;;;;;;;5.22;4.75;;;;;;;20.92;50.22;101159.94;4922507;28;117810;-70
2021/06/09 00:05:55;;;;;;;5.60;5.10;;;;;;;20.81;50.11;101149.25;4904086;28;98379;-70
2021/06/09 00:08:21;;;;;;;5.82;5.18;;;;;;;20.99;49.63;101158.31;4923337;28;98023;-70
2021/06/09 00:10:55;;;;;;;5.45;4.93;;;;;;;20.86;49.79;101169.41;4911992;28;128024;-69
2021/06/09 00:13:21;;;;;;;5.97;5.10;;;;;;;20.77;50.03;101166.66;4929172;28;99863;-70
2021/06/09 00:15:47;;;;;;;5.63;5.13;;;;;;;20.70;49.76;101166.31;4921980;28;97887;-70
2021/06/09 00:18:14;;;;;;;4.85;4.38;;;;;;;20.53;50.28;101165.16;4921876;28;112632;-69
2021/06/09 00:20:40;;;;;;;5.07;4.68;;;;;;;20.55;50.28;101162.09;4921710;28;98815;-70
2021/06/09 00:23:06;;;;;;;5.63;4.60;;;;;;;20.66;49.99;101168.88;4921273;28;128624;-70
2021/06/09 00:25:32;;;;;;;5.07;4.25;;;;;;;20.66;50.41;101171.63;4919607;28;98283;-70
2021/06/09 00:27:58;;;;;;;6.70;4.63;;;;;;;20.59;50.01;101180.31;4940685;28;97872;-70
2021/06/09 00:30:28;;;;;;;4.68;4.25;;;;;;;20.48;50.25;101178.16;4938223;28;98363;-69
2021/06/09 00:32:54;;;;;;;5.13;4.63;;;;;;;20.59;50.18;101184.97;4940516;28;113540;-70
2021/06/09 00:35:20;;;;;;;6.45;4.60;;;;;;;20.55;50.14;101179.34;4924679;28;105383;-69
2021/06/09 00:37:46;;;;;;;4.43;4.03;;;;;;;20.62;49.87;101178.84;4922566;28;111290;-69
2021/06/09 00:40:12;;;;;;;4.60;4.00;;;;;;;20.46;50.20;101183.13;4920327;28;97914;-70
2021/06/09 00:42:38;;;;;;;5.32;4.07;;;;;;;20.58;50.10;101181.44;4934608;28;116839;-70
2021/06/09 00:45:06;;;;;;;4.20;3.80;;;;;;;20.41;50.01;101175.06;4919834;28;97973;-70
2021/06/09 00:47:32;;;;;;;3.90;3.45;;;;;;;20.47;49.76;101180.06;4941905;28;97843;-70
2021/06/09 00:49:59;;;;;;;4.22;3.80;;;;;;;20.39;49.73;101178.09;4940966;28;121192;-70
2021/06/09 00:52:26;;;;;;;3.90;3.50;;;;;;;20.38;49.73;101179.22;4941503;28;98526;-69
2021/06/09 00:54:53;;;;;;;4.70;3.53;;;;;;;20.41;49.82;101183.28;4939722;28;98504;-70
2021/06/09 00:57:19;;;;;;;5.60;3.70;;;;;;;20.37;49.75;101185.03;4939438;28;97797;-69
2021/06/09 00:59:45;;;;;;;5.03;3.35;;;;;;;20.43;49.88;101189.22;4938767;28;118515;-70
2021/06/09 01:02:11;;;;;;;4.30;3.58;;;;;;;20.38;50.09;101179.22;4939233;28;98140;-70
2021/06/09 01:04:37;;;;;;;3.53;3.20;;;;;;;20.42;49.72;101187.63;4938557;28;98003;-70
2021/06/09 01:07:03;;;;;;;4.43;3.30;;;;;;;20.05;50.33;101176.03;4939991;28;112252;-69
2021/06/09 01:09:31;;;;;;;4.38;3.40;;;;;;;20.02;50.70;101182.94;4931558;28;128576;-70
2021/06/09 01:11:57;;;;;;;4.05;3.40;;;;;;;20.19;50.60;101178.66;4903570;28;98576;-69
2021/06/09 01:14:24;;;;;;;3.75;3.33;;;;;;;20.16;50.71;101184.75;4919225;28;124292;-70
2021/06/09 01:16:51;;;;;;;4.70;3.50;;;;;;;20.20;50.47;101186.56;4921452;28;100336;-69
2021/06/09 01:19:20;;;;;;;4.13;3.65;;;;;;;20.25;50.31;101180.16;4919916;28;98626;-69
2021/06/09 01:21:48;;;;;;;4.38;3.20;;;;;;;20.24;50.50;101181.25;4939266;28;98054;-69
2021/06/09 01:24:14;;;;;;;5.00;3.20;;;;;;;20.21;50.42;101179.16;4936691;28;97993;-69
2021/06/09 01:26:41;;;;;;;3.53;3.22;;;;;;;20.29;50.21;101183.88;4928505;28;98888;-69
2021/06/09 01:29:07;;;;;;;3.97;3.60;;;;;;;20.11;50.65;101191.19;4938067;28;98343;-71
2021/06/09 01:31:34;;;;;;;3.60;3.30;;;;;;;20.13;50.84;101180.75;4923231;28;98459;-69
2021/06/09 01:34:04;;;;;;;4.38;3.40;;;;;;;19.98;50.90;101184.69;4924017;28;111265;-70
2021/06/09 01:36:31;;;;;;;3.55;3.17;;;;;;;20.09;50.85;101185.22;4907618;28;97787;-70
2021/06/09 01:38:57;;;;;;;3.95;3.00;;;;;;;19.88;50.98;101181.38;4927118;28;98464;-69
2021/06/09 01:41:24;;;;;;;3.85;3.45;;;;;;;19.92;50.85;101176.91;4942975;28;128514;-69
2021/06/09 01:43:52;;;;;;;3.78;3.28;;;;;;;19.92;51.15;101174.16;4942030;28;97908;-69
2021/06/09 01:46:18;;;;;;;3.55;3.25;;;;;;;19.97;50.63;101172.13;4942087;28;97779;-69
2021/06/09 01:48:44;;;;;;;3.53;3.05;;;;;;;20.00;50.78;101178.88;4922491;28;127346;-70
2021/06/09 01:51:10;;;;;;;4.25;3.08;;;;;;;19.71;51.42;101176.63;4942689;28;117695;-69
2021/06/09 01:53:36;;;;;;;3.63;3.10;;;;;;;19.86;51.02;101179.78;4941195;28;125777;-69
2021/06/09 01:56:03;;;;;;;3.50;2.70;;;;;;;19.58;51.49;101178.28;4928675;28;111594;-70
2021/06/09 01:58:29;;;;;;;3.53;2.97;;;;;;;19.72;51.34;101180.97;4923416;28;98562;-70
2021/06/09 02:00:55;;;;;;;3.25;2.92;;;;;;;19.83;51.30;101183.13;4920892;28;127628;-69
2021/06/09 02:03:21;;;;;;;3.60;2.67;;;;;;;19.76;51.61;101184.69;4904927;28;122054;-69
2021/06/09 02:05:47;;;;;;;3.45;3.10;;;;;;;19.86;51.16;101188.00;4906603;28;98143;-70
2021/06/09 02:08:14;;;;;;;3.38;2.90;;;;;;;19.73;51.65;101188.03;4904796;28;127886;-70
2021/06/09 02:10:41;;;;;;;5.00;3.20;;;;;;;19.54;51.56;101188.22;4922981;28;97791;-70
2021/06/09 02:13:11;;;;;;;4.47;3.10;;;;;;;19.73;50.93;101190.78;4924180;28;97936;-69
2021/06/09 02:15:37;;;;;;;4.57;2.80;;;;;;;19.73;50.92;101201.72;4923081;28;98010;-69
2021/06/09 02:18:10;;;;;;;3.38;2.92;;;;;;;19.69;51.28;101198.81;4923341;28;98152;-69
2021/06/09 02:21:03;;;;;;;3.45;2.80;;;;;;;19.78;51.12;101204.34;4922449;28;98741;-70
2021/06/09 02:23:32;;;;;;;5.15;2.80;;;;;;;19.69;51.54;101196.09;4923375;28;99317;-69
2021/06/09 02:25:59;;;;;;;3.17;2.88;;;;;;;19.63;51.14;101191.84;4925323;28;98134;-70
2021/06/09 02:28:30;;;;;;;3.17;2.70;;;;;;;19.44;51.49;101197.47;4923281;28;98667;-70
2021/06/09 02:30:56;;;;;;;4.05;2.90;;;;;;;19.52;51.93;101187.72;4925322;28;98595;-69
2021/06/09 02:33:24;;;;;;;3.22;2.40;;;;;;;19.55;51.52;101185.16;4928782;28;98025;-70
2021/06/09 02:35:50;;;;;;;3.33;2.78;;;;;;;19.51;51.71;101186.09;4941338;28;98127;-69
2021/06/09 02:38:16;;;;;;;3.33;2.80;;;;;;;19.60;51.30;101184.22;4941618;28;98024;-70
2021/06/09 02:40:45;;;;;;;3.17;2.67;;;;;;;19.69;51.04;101192.53;4941019;28;112374;-70
2021/06/09 02:43:11;;;;;;;4.13;2.90;;;;;;;19.63;51.53;101196.53;4942972;28;111703;-69
2021/06/09 02:45:37;;;;;;;3.50;2.63;;;;;;;19.51;51.23;101206.03;4943854;28;98659;-69
2021/06/09 02:48:10;;;;;;;5.03;2.75;;;;;;;19.37;51.88;101197.06;4923698;28;105022;-69
2021/06/09 02:50:36;;;;;;;2.90;2.58;;;;;;;19.64;51.39;101204.41;4922904;28;115341;-70
2021/06/09 02:53:32;;;;;;;3.00;2.67;;;;;;;19.69;51.39;101209.75;4938018;28;115180;-69
2021/06/09 02:56:33;;;;;;;3.38;2.42;;;;;;;19.74;51.25;101219.78;4921610;28;97917;-69
2021/06/09 03:00:05;;;;;;;3.03;2.58;;;;;;;19.75;51.62;101222.19;4906019;28;99126;-69
2021/06/09 03:03:06;;;;;;;2.97;2.47;;;;;;;19.76;51.76;101220.25;4861187;28;107342;-69
2021/06/09 03:06:05;;;;;;;2.83;2.42;;;;;;;19.69;51.81;101219.88;4907031;28;112297;-70
2021/06/09 03:08:41;;;;;;;4.35;2.47;;;;;;;19.61;52.64;101207.75;4922356;28;98168;-69
2021/06/09 03:11:23;;;;;;;3.40;2.60;;;;;;;19.67;53.87;101211.19;4922011;28;98827;-70
2021/06/09 03:14:27;;;;;;;3.33;2.42;;;;;;;19.58;55.04;101200.16;4921705;28;99969;-69
2021/06/09 03:16:54;;;;;;;2.95;2.45;;;;;;;19.48;54.98;101203.13;4922081;28;98009;-70
2021/06/09 03:19:23;;;;;;;5.60;2.65;;;;;;;19.39;56.71;101197.59;4927676;28;98022;-68
2021/06/09 03:22:03;;;;;;;7.80;2.42;;;;;;;19.38;57.09;101196.78;4935354;28;116678;-67
2021/06/09 03:24:52;;;;;;;4.07;2.75;;;;;;;19.23;57.07;101193.59;4906418;28;98989;-67
2021/06/09 03:27:44;;;;;;;5.07;2.85;;;;;;;19.24;58.21;101187.81;4922300;28;98070;-68
2021/06/09 03:30:12;;;;;;;2.93;2.67;;;;;;;19.09;57.96;101185.41;4926646;28;98047;-69
2021/06/09 03:33:01;;;;;;;4.20;2.28;;;;;;;19.19;57.44;101179.72;4905119;28;120361;-68
2021/06/09 03:35:53;;;;;;;3.78;2.42;;;;;;;19.22;56.17;101181.84;4909138;28;98349;-68
2021/06/09 03:38:36;;;;;;;2.70;2.40;;;;;;;19.10;56.36;101178.84;4906579;28;98065;-68
2021/06/09 03:41:08;;;;;;;5.45;2.45;;;;;;;19.13;56.13;101176.28;4918072;28;98140;-69
2021/06/09 03:43:36;;;;;;;3.13;2.50;;;;;;;19.24;55.02;101181.53;4920468;28;99654;-68
2021/06/09 03:46:02;;;;;;;2.95;2.35;;;;;;;19.26;55.85;101193.78;4904976;28;115517;-68
2021/06/09 03:48:29;;;;;;;3.05;2.50;;;;;;;19.13;56.17;101189.94;4919748;28;98177;-69
2021/06/09 03:50:58;;;;;;;2.83;1.95;;;;;;;19.16;56.46;101198.66;4932072;28;98051;-68
2021/06/09 03:53:24;;;;;;;3.13;2.35;;;;;;;19.16;56.01;101195.94;4924064;28;99919;-68
2021/06/09 03:55:50;;;;;;;2.83;2.00;;;;;;;19.24;55.02;101197.94;4924198;28;98532;-70
2021/06/09 03:58:17;;;;;;;2.55;1.90;;;;;;;19.15;54.51;101192.41;4916747;28;127460;-68
2021/06/09 04:00:47;;;;;;;2.78;2.03;;;;;;;19.18;54.39;101199.16;4905166;28;98093;-69
2021/06/09 04:03:13;;;;;;;4.00;2.00;;;;;;;19.18;53.81;101191.78;4925690;28;98861;-68
2021/06/09 04:05:41;;;;;;;3.30;1.70;;;;;;;18.99;54.29;101199.31;4940091;28;97994;-68
2021/06/09 04:08:09;;;;;;;2.75;1.92;;;;;;;19.28;53.86;101194.28;4924221;28;98215;-70
2021/06/09 04:10:36;;;;;;;2.47;1.85;;;;;;;19.32;53.55;101202.66;4920157;28;97784;-68
2021/06/09 04:13:02;;;;;;;1.98;1.75;;;;;;;19.30;53.34;101202.97;4938893;28;113003;-70
2021/06/09 04:15:28;;;;;;;2.53;1.85;;;;;;;19.36;53.73;101203.66;4906662;28;128362;-68
2021/06/09 04:17:57;;;;;;;2.75;1.90;;;;;;;19.36;54.14;101201.72;4908487;28;112872;-70
2021/06/09 04:20:28;;;;;;;3.75;2.05;;;;;;;19.36;53.95;101203.66;4897039;28;97999;-69
2021/06/09 04:22:55;;;;;;;2.27;2.00;;;;;;;19.40;54.23;101199.19;4939841;28;99477;-69
2021/06/09 04:25:21;;;;;;;2.10;1.90;;;;;;;19.49;53.87;101202.00;4940504;28;98367;-70
2021/06/09 04:27:47;;;;;;;1.95;1.75;;;;;;;19.21;53.43;101199.34;4933498;28;124510;-69
2021/06/09 04:30:15;;;;;;;3.25;2.10;;;;;;;19.32;53.97;101203.47;4942324;28;97938;-69
2021/06/09 04:33:02;;;;;;;2.20;1.70;;;;;;;19.28;53.97;101198.94;4939024;28;99640;-70
2021/06/09 04:35:37;;;;;;;2.25;1.88;;;;;;;19.61;52.96;101196.81;4939894;28;98814;-69
2021/06/09 04:38:04;;;;;;;1.90;1.67;;;;;;;19.48;53.65;101187.53;4936046;28;98605;-70
2021/06/09 04:40:30;;;;;;;3.22;2.03;;;;;;;19.54;53.61;101193.69;4920939;28;97998;-69
2021/06/09 04:42:57;;;;;;;2.78;1.98;;;;;;;19.82;53.62;101188.94;4931025;28;99014;-69
2021/06/09 04:45:25;;;;;;;3.72;2.20;;;;;;;19.86;52.69;101188.00;4936817;28;98618;-69
2021/06/09 04:47:51;;;;;;;3.78;2.22;;;;;;;19.83;53.42;101179.59;4938520;28;98118;-69
2021/06/09 04:50:22;;;;;;;2.95;2.13;;;;;;;20.05;53.01;101182.31;4938761;28;98468;-69
2021/06/09 04:52:48;;;;;;;2.58;2.35;;;;;;;19.78;53.42;101180.53;4938695;28;98500;-69
2021/06/09 04:55:15;;;;;;;3.47;2.30;;;;;;;19.98;53.17;101190.16;4938676;28;98431;-69
2021/06/09 04:57:41;;;;;;;2.60;2.08;;;;;;;20.05;53.21;101181.50;4938119;28;98104;-69
2021/06/09 05:00:09;;;;;;;3.97;2.22;;;;;;;20.07;53.17;101187.47;4943369;28;97929;-70
2021/06/09 05:02:36;;;;;;;4.38;2.22;;;;;;;19.90;53.63;101185.44;4943697;28;118018;-70
2021/06/09 05:05:02;;;;;;;3.58;2.10;;;;;;;20.24;53.34;101175.78;4926060;28;98618;-70
2021/06/09 05:07:28;;;;;;;3.50;2.05;;;;;;;20.20;53.90;101180.28;4943008;28;102786;-71
2021/06/09 05:09:54;;;;;;;2.20;2.00;;;;;;;20.67;52.92;101177.91;4944024;28;112538;-71
2021/06/09 05:12:25;;;;;;;2.40;1.77;;;;;;;20.93;51.29;101184.25;4944242;28;98636;-69
2021/06/09 05:15:06;;;;;;;3.20;1.80;;;;;;;21.31;50.54;101178.16;4939576;28;98348;-70
2021/06/09 05:17:51;;;;;;;3.47;1.60;;;;;;;21.56;48.42;101177.38;4926481;28;98005;-71
2021/06/09 05:20:32;;;;;;;2.03;1.50;;;;;;;21.77;46.84;101184.91;4944410;28;97913;-70
2021/06/09 05:23:20;;;;;;;1.75;1.40;;;;;;;21.80;46.56;101187.81;4907903;28;111885;-71
2021/06/09 05:25:49;;;;;;;1.80;1.20;;;;;;;22.18;45.77;101187.13;4926228;28;98707;-71
2021/06/09 05:28:16;;;;;;;2.13;1.10;;;;;;;22.31;45.02;101193.53;4935988;28;98092;-71
2021/06/09 05:30:42;;;;;;;1.25;1.05;;;;;;;22.43;42.46;101196.38;4907311;28;98028;-71
2021/06/09 05:33:08;;;;;;;1.98;0.82;;;;;;;22.60;42.21;101195.50;4905735;28;126892;-70
2021/06/09 05:35:34;;;;;;;2.97;1.02;;;;;;;22.66;42.99;101187.88;4906483;28;118906;-71
2021/06/09 05:38:01;;;;;;;1.45;0.80;;;;;;;22.86;41.85;101186.28;4905694;28;127208;-71
2021/06/09 05:40:27;;;;;;;1.65;0.70;;;;;;;23.09;40.79;101193.13;4908668;28;97991;-70
2021/06/09 05:42:53;;;;;;;2.25;0.55;;;;;;;23.14;40.53;101195.66;4890118;28;126297;-70
2021/06/09 05:45:32;;;;;;;2.30;0.68;;;;;;;22.67;41.32;101197.72;4906621;28;127182;-71
2021/06/09 05:47:58;;;;;;;2.83;0.80;;;;;;;22.78;40.47;101188.75;4922764;28;98608;-72
2021/06/09 05:50:29;;;;;;;1.75;0.80;;;;;;;22.99;40.48;101199.00;4925412;28;98027;-72
2021/06/09 05:52:58;;;;;;;2.70;0.73;;;;;;;23.85;38.34;101194.75;4924813;28;99313;-72
2021/06/09 05:55:28;;;;;;;1.40;0.50;;;;;;;24.09;37.18;101195.94;4925657;28;98644;-70
2021/06/09 05:57:55;;;;;;;1.20;0.60;;;;;;;25.03;35.46;101198.63;4922351;28;98165;-71
2021/06/09 06:00:25;;;;;;;1.83;0.60;;;;;;;23.64;37.42;101203.03;4907163;28;97905;-71
2021/06/09 06:02:52;;;;;;;2.67;0.60;;;;;;;24.60;35.93;101204.75;4923548;28;114100;-72
2021/06/09 06:05:18;;;;;;;0.95;0.50;;;;;;;24.53;35.97;101207.31;4924018;28;121111;-70
2021/06/09 06:07:44;;;;;;;1.13;0.50;;;;;;;25.12;35.44;101206.81;4922615;28;97987;-71
2021/06/09 06:10:11;;;;;;;1.20;0.50;;;;;;;24.77;35.64;101207.28;4924639;28;98167;-70
2021/06/09 06:12:38;;;;;;;2.05;0.50;;;;;;;24.73;35.24;101211.88;4934044;28;111391;-72
2021/06/09 06:15:06;;;;;;;3.58;0.60;;;;;;;25.94;33.60;101206.41;4943191;28;99248;-70
2021/06/09 06:17:32;;;;;;;1.90;0.40;;;;;;;26.68;30.81;101212.22;4941925;28;105011;-70
2021/06/09 06:19:58;;;;;;;0.90;0.30;;;;;;;26.09;31.42;101213.09;4944210;28;97946;-70
2021/06/09 06:22:24;;;;;;;1.92;0.40;;;;;;;26.02;32.66;101213.72;4941650;28;127989;-70
2021/06/09 06:24:51;;;;;;;0.90;0.50;;;;;;;26.92;30.46;101208.44;4922522;28;127877;-72
2021/06/09 06:27:19;;;;;;;2.13;0.50;;;;;;;27.83;28.73;101212.75;4926059;28;98615;-71
2021/06/09 06:29:45;;;;;;;2.08;0.47;;;;;;;25.54;31.48;101221.03;4941942;28;98118;-70
2021/06/09 06:32:15;;;;;;;2.25;0.40;;;;;;;25.52;32.30;101215.06;4943387;28;98375;-70
2021/06/09 06:34:51;;;;;;;1.33;0.40;;;;;;;24.17;33.88;101214.31;4922036;28;98856;-71
2021/06/09 06:37:17;;;;;;;1.13;0.40;;;;;;;24.36;34.07;101217.34;4940482;28;113876;-70
2021/06/09 06:39:44;;;;;;;2.22;0.50;;;;;;;24.02;35.72;101215.81;4938402;28;101602;-70
2021/06/09 06:42:10;;;;;;;1.58;0.50;;;;;;;23.92;36.85;101221.72;4922753;28;123856;-71
2021/06/09 06:44:38;;;;;;;1.13;0.50;;;;;;;23.21;37.23;101217.94;4922474;28;98809;-70
2021/06/09 06:47:04;;;;;;;1.50;0.60;;;;;;;24.99;34.74;101208.75;4921712;28;98099;-72
2021/06/09 06:49:31;;;;;;;2.55;0.47;;;;;;;25.31;34.70;101215.28;4928370;28;98039;-72
2021/06/09 06:51:57;;;;;;;2.30;0.60;;;;;;;24.53;36.32;101219.13;4941665;28;98768;-72
2021/06/09 06:54:24;;;;;;;3.63;0.70;;;;;;;24.83;35.92;101216.13;4935074;28;127548;-70
2021/06/09 06:56:54;;;;;;;2.05;0.50;;;;;;;26.04;33.25;101216.13;4942278;28;98271;-72
2021/06/09 06:59:24;;;;;;;2.25;0.60;;;;;;;26.84;31.75;101215.78;4942345;28;98097;-72
2021/06/09 07:01:50;;;;;;;2.35;0.77;;;;;;;27.59;30.43;101214.66;4942632;28;98604;-72
2021/06/09 07:04:17;;;;;;;2.22;0.55;;;;;;;27.99;29.68;101220.97;4940451;28;98640;-70
2021/06/09 07:06:44;;;;;;;4.32;0.70;;;;;;;28.62;29.40;101217.69;4940899;28;100233;-70
2021/06/09 07:09:10;;;;;;;3.97;0.80;;;;;;;28.56;28.76;101219.19;4902456;28;97971;-70
2021/06/09 07:11:42;;;;;;;4.43;0.70;;;;;;;27.22;31.08;101224.53;4940662;28;98632;-72
2021/06/09 07:14:09;;;;;;;3.58;0.50;;;;;;;26.54;31.60;101218.22;4941339;28;116972;-72
2021/06/09 07:16:35;;;;;;;2.88;0.60;;;;;;;28.48;29.33;101225.78;4941470;28;98494;-72
2021/06/09 07:19:01;;;;;;;2.95;0.60;;;;;;;28.54;28.46;101221.53;4924828;28;97908;-70
2021/06/09 07:21:27;;;;;;;3.35;0.63;;;;;;;28.76;28.72;101228.19;4941516;28;98400;-72
2021/06/09 07:23:54;;;;;;;3.50;0.47;;;;;;;28.26;29.30;101219.88;4937442;28;98899;-72
2021/06/09 07:26:20;;;;;;;2.35;0.68;;;;;;;29.29;26.64;101225.41;4912399;28;115431;-73
2021/06/09 07:28:50;;;;;;;3.17;0.70;;;;;;;29.10;27.59;101223.56;4939607;28;98474;-73
2021/06/09 07:31:21;;;;;;;2.78;0.40;;;;;;;28.54;28.38;101227.88;4927353;28;98340;-70
2021/06/09 07:33:48;;;;;;;1.48;0.50;;;;;;;28.37;28.23;101223.66;4941215;28;98819;-70
2021/06/09 07:36:15;;;;;;;2.67;0.52;;;;;;;29.36;27.39;101214.41;4924450;28;98166;-73
2021/06/09 07:38:46;;;;;;;2.85;0.45;;;;;;;28.22;28.14;101218.19;4923841;28;101460;-70
2021/06/09 07:41:13;;;;;;;3.20;0.50;;;;;;;27.25;28.83;101216.31;4905612;28;97761;-72
2021/06/09 07:43:41;;;;;;;2.50;0.35;;;;;;;29.24;26.69;101217.41;4904445;28;115261;-73
2021/06/09 07:46:15;;;;;;;3.47;0.43;;;;;;;29.64;25.30;101216.75;4914158;28;97867;-73
2021/06/09 07:48:41;;;;;;;3.38;0.40;;;;;;;30.84;23.58;101221.03;4941225;28;98049;-73
2021/06/09 07:51:10;;;;;;;2.00;0.30;;;;;;;30.75;22.93;101218.59;4923132;28;98091;-73
2021/06/09 07:53:36;;;;;;;1.75;0.40;;;;;;;32.13;21.27;101216.78;4939939;28;98210;-70
2021/06/09 07:56:02;;;;;;;1.45;0.30;;;;;;;31.73;21.66;101218.66;4904711;28;97979;-71
2021/06/09 07:58:31;;;;;;;1.50;0.30;;;;;;;30.94;22.90;101219.50;4923798;28;97924;-73
2021/06/09 08:00:58;;;;;;;2.45;0.40;;;;;;;32.11;22.44;101212.78;4939643;28;98732;-71
2021/06/09 08:03:29;;;;;;;3.25;0.50;;;;;;;32.75;21.12;101208.00;4941926;28;98882;-73
2021/06/09 08:06:01;;;;;;;2.70;0.35;;;;;;;33.98;20.31;101214.69;4941535;28;98459;-73
2021/06/09 08:08:28;;;;;;;2.38;0.47;;;;;;;33.22;20.56;101214.28;4940908;28;98221;-74
2021/06/09 08:10:54;;;;;;;1.92;0.40;;;;;;;34.53;18.68;101213.88;4919071;28;98277;-74
2021/06/09 08:13:20;;;;;;;1.48;0.40;;;;;;;34.12;18.77;101223.00;4931087;28;114791;-71
2021/06/09 08:15:46;;;;;;;3.38;0.32;;;;;;;33.49;21.04;101222.16;4939086;28;128358;-74
2021/06/09 08:18:13;;;;;;;1.75;0.40;;;;;;;32.06;21.03;101208.41;4939159;28;114144;-71
2021/06/09 08:21:13;;;;;;;1.40;0.30;;;;;;;31.52;21.98;101210.25;4923982;28;98679;-74
2021/06/09 08:23:43;;;;;;;1.30;0.38;;;;;;;32.04;22.40;101208.00;4937312;28;98823;-71
2021/06/09 08:26:11;;;;;;;2.10;0.40;;;;;;;32.38;21.79;101207.59;4947430;28;98829;-72
2021/06/09 08:28:39;;;;;;;2.53;0.40;;;;;;;34.67;19.05;101207.34;4941143;28;97951;-71
2021/06/09 08:31:07;;;;;;;7.70;1.67;;;;;;;34.18;20.02;101220.53;4942160;28;98663;-75
2021/06/09 08:33:34;;;;;;;1.52;0.40;;;;;;;35.03;19.91;101212.59;4939806;28;114546;-75
2021/06/09 08:36:01;;;;;;;2.78;0.40;;;;;;;35.86;18.49;101208.28;4944800;28;98329;-74
2021/06/09 08:38:27;;;;;;;3.67;0.50;;;;;;;36.61;17.49;101215.50;4945282;28;97881;-74
2021/06/09 08:40:53;;;;;;;2.63;0.38;;;;;;;36.80;16.83;101213.94;4944270;28;110628;-71
2021/06/09 08:43:20;;;;;;;1.55;0.40;;;;;;;37.63;16.12;101220.72;4944737;28;98600;-71
2021/06/09 08:45:48;;;;;;;1.10;0.40;;;;;;;36.09;17.74;101215.19;4925409;28;99587;-74
2021/06/09 08:48:15;;;;;;;1.20;0.32;;;;;;;35.03;18.81;101204.97;4936024;28;98001;-71
2021/06/09 08:50:42;;;;;;;2.03;0.30;;;;;;;35.51;18.53;101206.00;4907176;28;98538;-74
2021/06/09 08:53:09;;;;;;;2.70;0.32;;;;;;;35.43;18.69;101202.47;4934174;28;98432;-74
2021/06/09 08:55:36;;;;;;;0.77;0.30;;;;;;;34.05;19.90;101202.69;4942719;28;98186;-71
2021/06/09 08:58:08;;;;;;;1.42;0.30;;;;;;;36.03;17.79;101189.63;4944538;28;98016;-74
2021/06/09 09:00:37;;;;;;;1.95;0.32;;;;;;;36.28;17.68;101194.81;4940467;28;99254;-75
2021/06/09 09:03:03;;;;;;;1.23;0.20;;;;;;;36.80;17.43;101205.53;4942295;28;98707;-71
2021/06/09 09:05:29;;;;;;;1.25;0.20;;;;;;;37.25;16.14;101205.03;4942957;28;127629;-75
2021/06/09 09:07:59;;;;;;;1.02;0.30;;;;;;;37.37;15.67;101205.59;4942661;28;113506;-71
2021/06/09 09:10:25;;;;;;;0.80;0.20;;;;;;;37.03;15.94;101203.91;4944816;28;98716;-74
2021/06/09 09:12:53;;;;;;;0.70;0.28;;;;;;;37.71;15.60;101196.81;4926339;28;98418;-74
2021/06/09 09:15:20;;;;;;;1.05;0.20;;;;;;;37.55;15.00;101208.84;4942258;28;98297;-71
2021/06/09 09:18:02;;;;;;;0.70;0.20;;;;;;;35.67;17.12;101202.56;4944758;28;98567;-72
2021/06/09 09:20:42;;;;;;;0.80;0.20;;;;;;;33.76;19.00;101197.28;4941712;28;98449;-71
2021/06/09 09:23:23;;;;;;;3.10;0.30;;;;;;;34.74;17.81;101190.47;4943393;28;99205;-72
2021/06/09 09:25:54;;;;;;;2.05;0.25;;;;;;;34.11;18.37;101190.66;4943203;28;98518;-71
2021/06/09 09:28:30;;;;;;;2.17;0.30;;;;;;;35.09;17.61;101194.09;4940279;28;98452;-73
2021/06/09 09:31:25;;;;;;;1.98;0.30;;;;;;;34.23;18.33;101199.72;4927651;28;99109;-72
2021/06/09 09:33:51;;;;;;;1.13;0.20;;;;;;;36.18;16.52;101195.78;4927253;28;98833;-74
2021/06/09 09:36:30;;;;;;;1.30;0.20;;;;;;;38.15;15.00;101206.63;4922302;28;112075;-74
2021/06/09 09:38:57;;;;;;;1.52;0.20;;;;;;;37.58;15.55;101200.31;4907171;28;97948;-74
2021/06/09 09:41:32;;;;;;;24.30;4.68;;;;;;;36.79;27.93;101203.16;4924757;28;114193;-68
2021/06/09 09:43:59;;;;;;;1.83;0.30;;;;;;;37.06;27.26;101203.03;4941290;28;98505;-68
2021/06/09 09:46:44;;;;;;;1.75;0.30;;;;;;;36.18;24.27;101198.59;4937464;28;98046;-71
2021/06/09 09:49:15;;;;;;;1.48;0.28;;;;;;;36.66;23.73;101199.38;4924950;28;98039;-75
2021/06/09 09:51:56;;;;;;;1.67;0.30;;;;;;;37.12;19.20;101206.91;4923671;28;98636;-76
2021/06/09 09:54:30;;;;;;;2.65;0.30;;;;;;;33.90;21.57;101199.16;4920339;28;101085;-72
2021/06/09 09:56:57;;;;;;;0.88;0.30;;;;;;;35.14;22.81;101188.06;4888982;28;99758;-70
2021/06/09 09:59:26;;;;;;;3.13;0.30;;;;;;;34.90;23.26;101189.91;4921202;28;98014;-70
2021/06/09 10:01:53;;;;;;;2.03;0.40;;;;;;;35.96;20.99;101177.69;4941198;28;98218;-71
2021/06/09 10:04:28;;;;;;;1.50;0.35;;;;;;;38.38;17.74;101182.38;4940272;28;98522;-70
2021/06/09 10:06:54;;;;;;;4.65;0.25;;;;;;;36.03;20.89;101186.03;4942353;28;98817;-70
2021/06/09 10:09:39;;;;;;;1.40;0.20;;;;;;;34.86;20.48;101181.56;4942753;28;97947;-73
2021/06/09 10:12:18;;;;;;;1.50;0.20;;;;;;;34.92;21.43;101182.66;4923993;28;101211;-74
2021/06/09 10:14:50;;;;;;;0.95;0.20;;;;;;;36.85;18.52;101176.16;4942097;28;98447;-69
2021/06/09 10:17:24;;;;;;;0.80;0.22;;;;;;;38.48;18.28;101170.81;4925001;28;98482;-73
2021/06/09 10:20:04;;;;;;;0.85;0.20;;;;;;;39.11;15.00;101177.94;4942977;28;97910;-75
2021/06/09 10:22:34;;;;;;;0.80;0.30;;;;;;;37.93;15.53;101183.88;4941832;28;98084;-75
2021/06/09 10:25:05;;;;;;;1.88;0.28;;;;;;;37.42;16.13;101162.97;4924179;28;98381;-69
2021/06/09 10:27:48;;;;;;;;;;;;;;;39.34;15.74;101168.41;4931240;28;115996;-74
2021/06/09 10:30:20;;;;;;;1.05;0.20;;;;;;;36.85;17.53;101160.09;4922796;28;98060;-74
2021/06/09 10:32:49;;;;;;;0.52;0.20;;;;;;;36.15;18.01;101154.56;4929496;28;99687;-69
2021/06/09 10:35:17;;;;;;;0.90;0.20;;;;;;;36.44;18.09;101154.84;4942029;28;98870;-70
2021/06/09 10:37:45;;;;;;;1.00;0.20;;;;;;;36.74;18.49;101150.28;4941402;28;112060;-70
2021/06/09 10:40:14;;;;;;;0.52;0.25;;;;;;;38.33;15.10;101149.94;4929707;28;98054;-74
2021/06/09 10:42:40;;;;;;;1.23;0.30;;;;;;;38.35;15.52;101153.06;4907543;28;107525;-73
2021/06/09 10:45:08;;;;;;;1.85;0.30;;;;;;;38.65;15.33;101156.69;4913053;28;99266;-73
2021/06/09 10:47:34;;;;;;;2.33;0.20;;;;;;;37.84;17.51;101152.72;4920963;28;98180;-70
2021/06/09 10:50:07;;;;;;;0.60;0.20;;;;;;;37.75;16.06;101132.88;4920997;28;98082;-73
2021/06/09 10:52:33;;;;;;;0.70;0.20;;;;;;;38.36;14.91;101136.97;4904396;28;109343;-73
2021/06/09 10:55:02;;;;;;;1.05;0.20;;;;;;;37.81;17.70;101133.94;4937238;28;98914;-70
2021/06/09 10:57:28;;;;;;;1.10;0.20;;;;;;;36.47;17.12;101117.56;4940729;28;116554;-73
2021/06/09 10:59:55;;;;;;;0.88;0.22;;;;;;;37.80;17.89;101121.09;4922975;28;117183;-70
2021/06/09 11:02:22;;;;;;;1.50;0.20;;;;;;;35.86;17.87;101126.97;4919694;28;97980;-70
2021/06/09 11:04:51;;;;;;;1.05;0.20;;;;;;;34.75;18.10;101122.09;4944733;28;97852;-70
2021/06/09 11:07:30;;;;;;;0.75;0.20;;;;;;;35.31;18.50;101117.00;4922842;28;98711;-71
2021/06/09 11:09:58;;;;;;;1.70;0.20;;;;;;;36.57;16.60;101118.56;4939054;28;97951;-70
2021/06/09 11:12:26;;;;;;;1.00;0.20;;;;;;;35.23;17.49;101106.31;4923041;28;98345;-74
2021/06/09 11:14:59;;;;;;;1.73;0.30;;;;;;;35.05;17.37;101107.34;4941838;28;98453;-73
2021/06/09 11:17:48;;;;;;;1.35;0.30;;;;;;;36.69;16.93;101106.69;4940621;28;110549;-70
2021/06/09 11:20:32;;;;;;;0.63;0.20;;;;;;;34.88;19.67;101097.16;4938347;28;98433;-73
2021/06/09 11:23:06;;;;;;;2.08;0.20;;;;;;;36.55;19.08;101104.16;4941469;28;98457;-74
2021/06/09 11:25:38;;;;;;;1.95;0.20;;;;;;;35.26;19.45;101105.47;4938299;28;98366;-73
2021/06/09 11:28:09;;;;;;;0.50;0.20;;;;;;;33.38;20.03;101102.09;4932831;28;97849;-69
2021/06/09 11:30:39;;;;;;;0.82;0.20;;;;;;;34.87;19.15;101096.34;4920062;28;97983;-69
2021/06/09 11:33:08;;;;;;;1.88;0.20;;;;;;;35.76;17.79;101091.50;4921307;28;99168;-69
2021/06/09 11:35:57;;;;;;;0.73;0.20;;;;;;;36.12;17.23;101096.53;4919429;28;98320;-74
2021/06/09 11:38:28;;;;;;;1.05;0.20;;;;;;;35.82;17.52;101091.81;4934832;28;98763;-68